Time;durP1;ratioP1;P1;durP2;ratioP2;P2;SDS_P1;SDS_P2;PMS_P1;PMS_P2;Temp;Humidity;BMP_temperature;BMP_pressure;BME280_temperature;BME280_humidity;BME280_pressure;Samples;Min_cycle;Max_cycle;Signal;HPM_P1;HPM_P2
2023/04/15 00:00:57;;;;;;;3.43;2.37;;;;;;;;;;5073105;28;20195;-85
2023/04/15 00:03:27;;;;;;;2.37;2.17;;;;;;;;;;5073239;28;20227;-85
2023/04/15 00:05:56;;;;;;;9.23;5.27;;;;;;;;;;5072630;28;20214;-86
2023/04/15 00:08:24;;;;;;;3.77;3.47;;;;;;;;;;5072930;28;20255;-86
2023/04/15 00:10:53;;;;;;;7.50;4.43;;;;;;;;;;5072736;28;20227;-86
2023/04/15 00:13:22;;;;;;;8.50;4.37;;;;;;;;;;5072967;28;20303;-86
2023/04/15 00:15:51;;;;;;;5.70;4.67;;;;;;;;;;5073076;28;20207;-85
2023/04/15 00:18:19;;;;;;;2.77;2.50;;;;;;;;;;5072759;28;20199;-86
2023/04/15 00:20:49;;;;;;;5.00;4.50;;;;;;;;;;5072720;28;20202;-86
2023/04/15 00:23:17;;;;;;;3.13;2.93;;;;;;;;;;5072682;28;20249;-86
2023/04/15 00:25:46;;;;;;;3.57;3.33;;;;;;;;;;5072333;28;20252;-86
2023/04/15 00:28:14;;;;;;;1.93;1.83;;;;;;;;;;5072763;28;20216;-86
2023/04/15 00:30:43;;;;;;;3.60;2.80;;;;;;;;;;5072287;28;20316;-86
2023/04/15 00:33:11;;;;;;;9.57;5.60;;;;;;;;;;5072756;28;20203;-86
2023/04/15 00:35:40;;;;;;;5.73;4.57;;;;;;;;;;5072508;28;20274;-86
2023/04/15 00:38:10;;;;;;;2.50;2.30;;;;;;;;;;5072432;28;20200;-87
2023/04/15 00:40:39;;;;;;;2.87;2.60;;;;;;;;;;5072407;28;20200;-86
2023/04/15 00:43:07;;;;;;;2.97;2.77;;;;;;;;;;5072215;28;20235;-85
2023/04/15 00:45:36;;;;;;;4.33;3.30;;;;;;;;;;5072274;28;20199;-88
2023/04/15 00:48:05;;;;;;;4.53;3.30;;;;;;;;;;5072616;28;20203;-88
2023/04/15 00:50:34;;;;;;;6.03;4.27;;;;;;;;;;5072566;28;20258;-88
2023/04/15 00:53:02;;;;;;;7.50;5.57;;;;;;;;;;5072106;28;20203;-88
2023/04/15 00:55:32;;;;;;;6.57;3.47;;;;;;;;;;5072106;28;20191;-88
2023/04/15 00:58:01;;;;;;;4.27;3.83;;;;;;;;;;5072297;28;20213;-88
2023/04/15 01:00:30;;;;;;;3.67;3.07;;;;;;;;;;5071602;28;20195;-88
2023/04/15 01:02:58;;;;;;;4.00;2.83;;;;;;;;;;5071995;28;20199;-88
2023/04/15 01:05:27;;;;;;;8.50;5.47;;;;;;;;;;5071600;28;20257;-85
2023/04/15 01:07:56;;;;;;;3.90;3.50;;;;;;;;;;5071501;28;20264;-86
2023/04/15 01:10:24;;;;;;;3.97;3.07;;;;;;;;;;5071017;28;20222;-86
2023/04/15 01:12:54;;;;;;;5.17;3.43;;;;;;;;;;5071897;28;20209;-86
2023/04/15 01:15:23;;;;;;;4.17;2.83;;;;;;;;;;5072042;28;20204;-85
2023/04/15 01:17:51;;;;;;;4.50;4.07;;;;;;;;;;5071824;28;20222;-86
2023/04/15 01:20:21;;;;;;;8.20;4.33;;;;;;;;;;5071604;28;20198;-86
2023/04/15 01:22:50;;;;;;;3.40;3.20;;;;;;;;;;5072253;28;20238;-86
2023/04/15 01:25:19;;;;;;;4.07;3.33;;;;;;;;;;5071618;28;20203;-86
2023/04/15 01:27:49;;;;;;;1.90;1.80;;;;;;;;;;5071745;28;20223;-87
2023/04/15 01:30:17;;;;;;;4.37;3.47;;;;;;;;;;5072076;28;20211;-87
2023/04/15 01:32:46;;;;;;;3.63;3.33;;;;;;;;;;5071862;28;20293;-88
2023/04/15 01:35:14;;;;;;;2.70;2.47;;;;;;;;;;5071989;28;20202;-88
2023/04/15 01:37:43;;;;;;;2.60;2.43;;;;;;;;;;5071985;28;20215;-88
2023/04/15 01:40:12;;;;;;;3.77;3.47;;;;;;;;;;5071674;28;20203;-88
2023/04/15 01:42:41;;;;;;;3.40;3.10;;;;;;;;;;5071689;28;20240;-88
2023/04/15 01:45:12;;;;;;;5.23;2.63;;;;;;;;;;5071911;28;20226;-88
2023/04/15 01:47:40;;;;;;;10.20;6.00;;;;;;;;;;5071333;28;20263;-88
2023/04/15 01:50:09;;;;;;;3.83;3.53;;;;;;;;;;5071790;28;20203;-88
2023/04/15 01:52:37;;;;;;;2.73;2.47;;;;;;;;;;5071584;28;20285;-88
2023/04/15 01:55:06;;;;;;;12.03;6.77;;;;;;;;;;5071728;28;20237;-88
2023/04/15 01:57:35;;;;;;;3.70;3.40;;;;;;;;;;5071970;28;20259;-88
2023/04/15 02:00:06;;;;;;;4.93;3.77;;;;;;;;;;5071976;28;20207;-88
2023/04/15 02:02:36;;;;;;;5.03;3.57;;;;;;;;;;5071228;28;20206;-88
2023/04/15 02:05:05;;;;;;;5.37;4.87;;;;;;;;;;5071552;28;20206;-88
2023/04/15 02:07:34;;;;;;;6.37;4.33;;;;;;;;;;5071375;28;20248;-88
2023/04/15 02:10:03;;;;;;;3.77;3.47;;;;;;;;;;5071017;28;20205;-88
2023/04/15 02:12:31;;;;;;;7.97;5.03;;;;;;;;;;5070840;28;20230;-88
2023/04/15 02:15:00;;;;;;;4.37;3.97;;;;;;;;;;5071610;28;20230;-88
2023/04/15 02:17:28;;;;;;;8.30;4.33;;;;;;;;;;5070916;28;20206;-87
2023/04/15 02:19:58;;;;;;;8.40;5.27;;;;;;;;;;5071253;28;20302;-88
2023/04/15 02:22:28;;;;;;;2.57;2.37;;;;;;;;;;5073511;28;20216;-88
2023/04/15 02:24:56;;;;;;;3.50;2.73;;;;;;;;;;5074902;28;20245;-88
2023/04/15 02:27:25;;;;;;;12.33;5.83;;;;;;;;;;5074224;28;20218;-88
2023/04/15 02:29:53;;;;;;;5.33;4.30;;;;;;;;;;5075120;28;20267;-88
2023/04/15 02:32:23;;;;;;;3.93;3.63;;;;;;;;;;5074711;28;20311;-88
2023/04/15 02:34:52;;;;;;;5.70;5.10;;;;;;;;;;5074429;28;20198;-88
2023/04/15 02:37:22;;;;;;;4.93;3.63;;;;;;;;;;5074662;28;20203;-88
2023/04/15 02:39:50;;;;;;;5.47;3.63;;;;;;;;;;5075105;28;20230;-88
2023/04/15 02:42:20;;;;;;;4.63;3.53;;;;;;;;;;5074016;28;20317;-88
2023/04/15 02:44:48;;;;;;;6.10;5.50;;;;;;;;;;5074648;28;20203;-88
2023/04/15 02:47:17;;;;;;;8.03;5.87;;;;;;;;;;5074688;28;20259;-87
2023/04/15 02:49:46;;;;;;;12.50;6.60;;;;;;;;;;5074773;28;20211;-88
2023/04/15 02:52:14;;;;;;;4.20;3.80;;;;;;;;;;5074529;28;20289;-87
2023/04/15 02:54:44;;;;;;;6.47;4.57;;;;;;;;;;5074369;28;20200;-88
2023/04/15 02:57:13;;;;;;;2.70;2.50;;;;;;;;;;5074063;28;20206;-87
2023/04/15 02:59:41;;;;;;;5.20;4.70;;;;;;;;;;5074349;28;20200;-88
2023/04/15 03:02:10;;;;;;;4.90;4.10;;;;;;;;;;5074412;28;20198;-88
2023/04/15 03:04:38;;;;;;;7.43;5.87;;;;;;;;;;5074008;28;20199;-88
2023/04/15 03:07:07;;;;;;;5.60;4.93;;;;;;;;;;5075021;28;20213;-88
2023/04/15 03:09:35;;;;;;;3.37;3.07;;;;;;;;;;5073964;28;20208;-85
2023/04/15 03:12:05;;;;;;;6.10;5.23;;;;;;;;;;5073519;28;20228;-86
2023/04/15 03:14:33;;;;;;;8.67;6.67;;;;;;;;;;5073602;28;20202;-86
2023/04/15 03:17:01;;;;;;;5.53;4.73;;;;;;;;;;5074151;28;20244;-86
2023/04/15 03:19:30;;;;;;;3.47;3.17;;;;;;;;;;5073638;28;20206;-86
2023/04/15 03:21:59;;;;;;;6.53;4.90;;;;;;;;;;5073811;28;20361;-86
2023/04/15 03:24:28;;;;;;;4.67;4.23;;;;;;;;;;5073563;28;20212;-86
2023/04/15 03:26:57;;;;;;;4.60;4.20;;;;;;;;;;5073653;28;20272;-86
2023/04/15 03:29:26;;;;;;;4.67;3.97;;;;;;;;;;5073165;28;20237;-86
2023/04/15 03:31:55;;;;;;;2.53;2.33;;;;;;;;;;5073343;28;20250;-86
2023/04/15 03:34:23;;;;;;;6.60;5.47;;;;;;;;;;5073127;28;20203;-86
2023/04/15 03:36:52;;;;;;;2.67;2.30;;;;;;;;;;5073222;28;20203;-86
2023/04/15 03:39:20;;;;;;;5.27;4.77;;;;;;;;;;5074065;28;20195;-86
2023/04/15 03:41:49;;;;;;;3.07;2.80;;;;;;;;;;5073214;28;20231;-86
2023/04/15 03:44:17;;;;;;;2.40;2.20;;;;;;;;;;5073049;28;20207;-86
2023/04/15 03:46:47;;;;;;;4.00;2.70;;;;;;;;;;5073517;28;20231;-85
2023/04/15 03:49:16;;;;;;;6.93;3.27;;;;;;;;;;5073836;28;20276;-86
2023/04/15 03:51:44;;;;;;;1.57;1.47;;;;;;;;;;5073346;28;20214;-86
2023/04/15 03:54:14;;;;;;;3.73;3.40;;;;;;;;;;5073422;28;20195;-88
2023/04/15 03:56:42;;;;;;;4.23;3.60;;;;;;;;;;5073471;28;20199;-88
2023/04/15 03:59:10;;;;;;;4.67;3.63;;;;;;;;;;5073341;28;20296;-88
2023/04/15 04:01:39;;;;;;;6.07;4.47;;;;;;;;;;5073466;28;20208;-88
2023/04/15 04:04:09;;;;;;;5.80;4.37;;;;;;;;;;5073279;28;20203;-88
2023/04/15 04:06:37;;;;;;;6.90;4.27;;;;;;;;;;5073496;28;20202;-88
2023/04/15 04:09:05;;;;;;;3.07;2.77;;;;;;;;;;5073019;28;20202;-87
2023/04/15 04:11:34;;;;;;;3.90;3.60;;;;;;;;;;5073046;28;20193;-88
2023/04/15 04:14:02;;;;;;;3.43;3.17;;;;;;;;;;5072553;28;20201;-88
2023/04/15 04:16:31;;;;;;;5.27;3.23;;;;;;;;;;5072521;28;20310;-88
2023/04/15 04:18:59;;;;;;;4.10;3.43;;;;;;;;;;5073349;28;20213;-87
2023/04/15 04:21:30;;;;;;;6.27;2.30;;;;;;;;;;5072882;28;20255;-88
2023/04/15 04:23:58;;;;;;;1.03;1.03;;;;;;;;;;5072685;28;20223;-88
2023/04/15 04:26:27;;;;;;;5.63;2.80;;;;;;;;;;5073018;28;20206;-87
2023/04/15 04:28:55;;;;;;;5.77;3.17;;;;;;;;;;5072480;28;20205;-88
2023/04/15 04:31:23;;;;;;;3.77;2.37;;;;;;;;;;5072159;28;20198;-88
2023/04/15 04:33:52;;;;;;;9.70;2.97;;;;;;;;;;5072567;28;20227;-88
2023/04/15 04:36:20;;;;;;;7.20;2.80;;;;;;;;;;5072251;28;20231;-88
2023/04/15 04:38:51;;;;;;;16.70;5.33;;;;;;;;;;5072151;28;20359;-87
2023/04/15 04:41:20;;;;;;;3.20;2.13;;;;;;;;;;5072500;28;20243;-87
2023/04/15 04:43:48;;;;;;;2.60;2.40;;;;;;;;;;5071873;28;20208;-86
2023/04/15 04:46:16;;;;;;;4.33;2.40;;;;;;;;;;5071994;28;20264;-88
2023/04/15 04:48:45;;;;;;;2.97;2.70;;;;;;;;;;5072205;28;20201;-87
2023/04/15 04:51:14;;;;;;;3.50;2.63;;;;;;;;;;5072303;28;20203;-88
2023/04/15 04:53:43;;;;;;;4.37;3.97;;;;;;;;;;5071987;28;20214;-88
2023/04/15 04:56:13;;;;;;;2.37;2.27;;;;;;;;;;5072017;28;20214;-87
2023/04/15 04:58:41;;;;;;;2.77;2.57;;;;;;;;;;5072210;28;20232;-88
2023/04/15 05:01:09;;;;;;;1.83;1.73;;;;;;;;;;5071790;28;20202;-88
2023/04/15 05:03:38;;;;;;;3.00;2.77;;;;;;;;;;5072236;28;20225;-87
2023/04/15 05:06:07;;;;;;;1.90;1.80;;;;;;;;;;5072187;28;20235;-87
2023/04/15 05:08:36;;;;;;;5.73;4.23;;;;;;;;;;5071686;28;20204;-88
2023/04/15 05:11:07;;;;;;;5.50;4.90;;;;;;;;;;5071805;28;20198;-88
2023/04/15 05:13:37;;;;;;;5.53;4.90;;;;;;;;;;5072459;28;20229;-87
2023/04/15 05:16:06;;;;;;;6.73;5.87;;;;;;;;;;5071680;28;20267;-88
2023/04/15 05:18:35;;;;;;;4.60;4.10;;;;;;;;;;5071724;28;20209;-87
2023/04/15 05:21:04;;;;;;;12.27;7.07;;;;;;;;;;5072009;28;20194;-87
2023/04/15 05:23:32;;;;;;;4.30;3.90;;;;;;;;;;5072129;28;20233;-87
2023/04/15 05:26:01;;;;;;;5.83;5.20;;;;;;;;;;5071884;28;20234;-87
2023/04/15 05:28:29;;;;;;;8.97;5.43;;;;;;;;;;5071760;28;20321;-87
2023/04/15 05:30:59;;;;;;;10.47;5.00;;;;;;;;;;5071669;28;20197;-88
2023/04/15 05:33:28;;;;;;;7.47;5.50;;;;;;;;;;5071169;28;20201;-87
2023/04/15 05:35:56;;;;;;;4.70;4.20;;;;;;;;;;5072021;28;20225;-88
2023/04/15 05:38:25;;;;;;;5.07;4.53;;;;;;;;;;5071689;28;20251;-88
2023/04/15 05:40:53;;;;;;;2.80;2.50;;;;;;;;;;5071706;28;20289;-87
2023/04/15 05:43:21;;;;;;;7.13;6.20;;;;;;;;;;5071462;28;20185;-88
2023/04/15 05:45:50;;;;;;;6.70;5.27;;;;;;;;;;5071821;28;20238;-88
2023/04/15 05:48:20;;;;;;;4.50;4.10;;;;;;;;;;5071336;28;20220;-88
2023/04/15 05:50:48;;;;;;;5.87;4.80;;;;;;;;;;5071746;28;20201;-88
2023/04/15 05:53:17;;;;;;;11.93;7.60;;;;;;;;;;5071403;28;20304;-88
2023/04/15 05:55:45;;;;;;;8.97;6.40;;;;;;;;;;5072832;28;20197;-87
2023/04/15 05:58:14;;;;;;;12.63;8.43;;;;;;;;;;5075859;28;20247;-87
2023/04/15 06:00:45;;;;;;;6.63;5.97;;;;;;;;;;5072339;28;20214;-88
2023/04/15 06:03:14;;;;;;;6.80;4.77;;;;;;;;;;5076478;28;20202;-88
2023/04/15 06:05:47;;;;;;;6.23;5.50;;;;;;;;;;5070684;28;20221;-88
2023/04/15 06:08:15;;;;;;;5.27;3.37;;;;;;;;;;5061594;28;20206;-88
2023/04/15 06:10:44;;;;;;;4.50;4.10;;;;;;;;;;5075071;28;20279;-88
2023/04/15 06:13:13;;;;;;;3.93;3.63;;;;;;;;;;5072572;28;20218;-88
2023/04/15 06:15:41;;;;;;;6.73;3.10;;;;;;;;;;5071897;28;20217;-88
2023/04/15 06:18:10;;;;;;;3.97;3.57;;;;;;;;;;5075511;28;20234;-88
2023/04/15 06:20:39;;;;;;;3.17;2.93;;;;;;;;;;5074933;28;20207;-88
2023/04/15 06:23:08;;;;;;;6.43;4.47;;;;;;;;;;5075743;28;20202;-88
2023/04/15 06:25:37;;;;;;;7.77;5.83;;;;;;;;;;5074258;28;20260;-88
2023/04/15 06:28:05;;;;;;;4.30;3.87;;;;;;;;;;5073283;28;20323;-88
2023/04/15 06:30:34;;;;;;;5.77;5.23;;;;;;;;;;5075018;28;20200;-88
2023/04/15 06:33:04;;;;;;;7.07;4.47;;;;;;;;;;5073959;28;20256;-88
2023/04/15 06:35:32;;;;;;;4.90;4.47;;;;;;;;;;5072945;28;20195;-88
2023/04/15 06:38:01;;;;;;;4.37;3.80;;;;;;;;;;5075331;28;20207;-88
2023/04/15 06:40:30;;;;;;;6.83;6.03;;;;;;;;;;5075010;28;20223;-88
2023/04/15 06:43:00;;;;;;;11.53;5.40;;;;;;;;;;5073242;28;20308;-88
2023/04/15 06:45:29;;;;;;;4.07;3.70;;;;;;;;;;5071068;28;20212;-88
2023/04/15 06:47:57;;;;;;;6.37;5.77;;;;;;;;;;5074732;28;20212;-88
2023/04/15 06:50:26;;;;;;;2.67;2.47;;;;;;;;;;5074574;28;20302;-88
2023/04/15 06:52:55;;;;;;;5.40;3.90;;;;;;;;;;5074831;28;20246;-88
2023/04/15 06:55:23;;;;;;;7.90;4.03;;;;;;;;;;5073624;28;20224;-88
2023/04/15 06:57:51;;;;;;;10.03;6.93;;;;;;;;;;5073632;28;20212;-88
2023/04/15 07:00:25;;;;;;;5.43;4.77;;;;;;;;;;5067415;28;20196;-88
2023/04/15 07:02:55;;;;;;;5.67;5.03;;;;;;;;;;5072515;28;20218;-87
2023/04/15 07:05:25;;;;;;;9.33;6.07;;;;;;;;;;5071896;28;20221;-86
2023/04/15 07:07:53;;;;;;;4.80;4.33;;;;;;;;;;5074353;28;20229;-85
2023/04/15 07:10:24;;;;;;;10.30;6.43;;;;;;;;;;5073620;28;20200;-86
2023/04/15 07:12:53;;;;;;;5.07;4.60;;;;;;;;;;5072094;28;20227;-86
2023/04/15 07:15:22;;;;;;;9.70;6.27;;;;;;;;;;5074560;28;20227;-85
2023/04/15 07:17:52;;;;;;;6.70;4.57;;;;;;;;;;5075046;28;20296;-86
2023/04/15 07:20:22;;;;;;;4.87;4.33;;;;;;;;;;5074213;28;20232;-86
2023/04/15 07:22:50;;;;;;;6.97;5.13;;;;;;;;;;5073423;28;20196;-86
2023/04/15 07:25:18;;;;;;;5.83;4.53;;;;;;;;;;5073974;28;20292;-86
2023/04/15 07:27:49;;;;;;;6.07;4.40;;;;;;;;;;5073533;28;20308;-86
2023/04/15 07:30:17;;;;;;;9.03;4.67;;;;;;;;;;5073576;28;20255;-86
2023/04/15 07:32:46;;;;;;;7.80;5.57;;;;;;;;;;5073323;28;20196;-86
2023/04/15 07:35:16;;;;;;;5.87;5.27;;;;;;;;;;5073697;28;20217;-85
2023/04/15 07:37:44;;;;;;;5.40;4.67;;;;;;;;;;5072732;28;20212;-86
2023/04/15 07:40:13;;;;;;;5.97;5.37;;;;;;;;;;5073920;28;20200;-86
2023/04/15 07:42:42;;;;;;;4.80;4.30;;;;;;;;;;5073258;28;20466;-86
2023/04/15 07:45:11;;;;;;;4.90;4.23;;;;;;;;;;5073148;28;20201;-86
2023/04/15 07:47:40;;;;;;;2.47;2.27;;;;;;;;;;5073244;28;20200;-86
2023/04/15 07:50:10;;;;;;;6.20;5.07;;;;;;;;;;5073365;28;20251;-86
2023/04/15 07:52:40;;;;;;;6.63;4.90;;;;;;;;;;5073344;28;20209;-86
2023/04/15 07:55:09;;;;;;;4.27;3.83;;;;;;;;;;5073241;28;20217;-86
2023/04/15 07:57:38;;;;;;;6.17;3.47;;;;;;;;;;5073214;28;20198;-85
2023/04/15 08:00:07;;;;;;;5.50;4.60;;;;;;;;;;5073257;28;20210;-85
2023/04/15 08:02:36;;;;;;;2.80;2.50;;;;;;;;;;5073584;28;20242;-85
2023/04/15 08:05:08;;;;;;;4.07;3.77;;;;;;;;;;5073361;28;20225;-86
2023/04/15 08:07:36;;;;;;;5.03;4.53;;;;;;;;;;5072817;28;20202;-85
2023/04/15 08:10:07;;;;;;;3.77;3.47;;;;;;;;;;5072709;28;20240;-86
2023/04/15 08:12:35;;;;;;;5.67;4.37;;;;;;;;;;5073179;28;20293;-86
2023/04/15 08:15:04;;;;;;;4.47;4.03;;;;;;;;;;5072818;28;20266;-86
2023/04/15 08:17:32;;;;;;;3.30;3.00;;;;;;;;;;5073182;28;20248;-85
2023/04/15 08:20:01;;;;;;;3.40;3.10;;;;;;;;;;5072672;28;20197;-85
2023/04/15 08:22:29;;;;;;;2.43;2.23;;;;;;;;;;5072626;28;20237;-86
2023/04/15 08:24:58;;;;;;;3.13;2.93;;;;;;;;;;5072807;28;20284;-86
2023/04/15 08:27:28;;;;;;;4.20;3.90;;;;;;;;;;5072855;28;20225;-86
2023/04/15 08:29:56;;;;;;;4.60;3.60;;;;;;;;;;5072877;28;20206;-86
2023/04/15 08:32:26;;;;;;;5.60;4.77;;;;;;;;;;5072415;28;20296;-86
2023/04/15 08:34:54;;;;;;;2.93;2.73;;;;;;;;;;5072524;28;20221;-86
2023/04/15 08:37:22;;;;;;;6.70;4.20;;;;;;;;;;5072555;28;20198;-86
2023/04/15 08:39:51;;;;;;;5.63;4.20;;;;;;;;;;5072139;28;20226;-86
2023/04/15 08:42:24;;;;;;;4.47;3.53;;;;;;;;;;5072315;28;20291;-86
2023/04/15 08:44:54;;;;;;;4.70;3.53;;;;;;;;;;5072855;28;20280;-86
2023/04/15 08:47:24;;;;;;;7.40;2.80;;;;;;;;;;5072005;28;20205;-86
2023/04/15 08:49:53;;;;;;;3.73;3.43;;;;;;;;;;5072336;28;20331;-86
2023/04/15 08:52:22;;;;;;;4.33;3.73;;;;;;;;;;5072387;28;20296;-85
2023/04/15 08:54:50;;;;;;;3.13;2.83;;;;;;;;;;5072306;28;20221;-86
2023/04/15 08:57:19;;;;;;;2.50;2.17;;;;;;;;;;5072394;28;20224;-86
2023/04/15 08:59:48;;;;;;;4.00;3.47;;;;;;;;;;5072069;28;20200;-85
2023/04/15 09:02:18;;;;;;;5.57;3.80;;;;;;;;;;5071800;28;20221;-86
2023/04/15 09:04:47;;;;;;;4.20;3.63;;;;;;;;;;5071888;28;20190;-86
2023/04/15 09:07:15;;;;;;;2.20;2.07;;;;;;;;;;5071704;28;20228;-86
2023/04/15 09:09:44;;;;;;;2.70;2.50;;;;;;;;;;5071578;28;20300;-85
2023/04/15 09:12:12;;;;;;;8.53;2.50;;;;;;;;;;5072239;28;20197;-86
2023/04/15 09:14:41;;;;;;;4.20;3.80;;;;;;;;;;5071866;28;20225;-86
2023/04/15 09:17:11;;;;;;;3.37;3.13;;;;;;;;;;5071721;28;20220;-85
2023/04/15 09:19:41;;;;;;;3.97;3.27;;;;;;;;;;5071453;28;20224;-86
2023/04/15 09:22:10;;;;;;;6.23;3.67;;;;;;;;;;5071813;28;20250;-86
2023/04/15 09:24:42;;;;;;;3.90;3.43;;;;;;;;;;5072198;28;20233;-86
2023/04/15 09:27:11;;;;;;;3.47;3.07;;;;;;;;;;5071878;28;20217;-86
2023/04/15 09:29:39;;;;;;;7.20;3.63;;;;;;;;;;5072243;28;20194;-86
2023/04/15 09:32:11;;;;;;;3.67;3.37;;;;;;;;;;5071708;28;20309;-85
2023/04/15 09:34:42;;;;;;;4.23;3.37;;;;;;;;;;5071663;28;20206;-85
2023/04/15 09:37:12;;;;;;;3.20;2.83;;;;;;;;;;5072313;28;20276;-86
2023/04/15 09:39:59;;;;;;;2.97;2.70;;;;;;;;;;5071174;28;20194;-86
2023/04/15 09:42:27;;;;;;;2.80;2.60;;;;;;;;;;5071641;28;20230;-86
2023/04/15 09:44:56;;;;;;;6.33;3.03;;;;;;;;;;5072004;28;20200;-86
2023/04/15 09:47:28;;;;;;;3.37;2.80;;;;;;;;;;5071664;28;20205;-86
2023/04/15 09:49:58;;;;;;;3.13;2.63;;;;;;;;;;5071041;28;20203;-86
2023/04/15 09:52:27;;;;;;;5.77;3.67;;;;;;;;;;5071685;28;20201;-86
2023/04/15 09:54:57;;;;;;;6.37;3.00;;;;;;;;;;5071236;28;20273;-85
2023/04/15 09:57:26;;;;;;;2.87;2.57;;;;;;;;;;5071816;28;20205;-86
2023/04/15 09:59:55;;;;;;;3.50;3.03;;;;;;;;;;5071834;28;20292;-86
2023/04/15 10:02:23;;;;;;;1.70;1.30;;;;;;;;;;5071821;28;20292;-86
2023/04/15 10:04:53;;;;;;;2.80;2.50;;;;;;;;;;5071231;28;20198;-86
2023/04/15 10:07:23;;;;;;;4.83;3.33;;;;;;;;;;5071699;28;20214;-86
2023/04/15 10:09:51;;;;;;;3.40;2.40;;;;;;;;;;5071426;28;20202;-86
2023/04/15 10:12:20;;;;;;;2.00;1.90;;;;;;;;;;5071066;28;20252;-86
2023/04/15 10:14:49;;;;;;;3.87;1.83;;;;;;;;;;5071057;28;20300;-86
2023/04/15 10:17:18;;;;;;;3.40;3.07;;;;;;;;;;5071193;28;20221;-86
2023/04/15 10:19:47;;;;;;;3.07;2.43;;;;;;;;;;5071483;28;20223;-85
2023/04/15 10:22:16;;;;;;;2.40;2.13;;;;;;;;;;5071376;28;20187;-85
2023/04/15 10:24:47;;;;;;;2.40;2.00;;;;;;;;;;5071203;28;20208;-85
2023/04/15 10:27:18;;;;;;;5.33;3.37;;;;;;;;;;5071135;28;20258;-86
2023/04/15 10:29:46;;;;;;;9.90;3.07;;;;;;;;;;5071699;28;20201;-86
2023/04/15 10:32:15;;;;;;;4.27;3.87;;;;;;;;;;5070813;28;20202;-86
2023/04/15 10:34:44;;;;;;;5.73;3.30;;;;;;;;;;5070815;28;20222;-86
2023/04/15 10:37:12;;;;;;;2.37;2.17;;;;;;;;;;5071264;28;20225;-86
2023/04/15 10:39:42;;;;;;;3.80;2.80;;;;;;;;;;5071189;28;20203;-86
2023/04/15 10:42:12;;;;;;;4.03;2.97;;;;;;;;;;5071069;28;20252;-86
2023/04/15 10:44:43;;;;;;;4.23;3.30;;;;;;;;;;5074379;28;20189;-86
2023/04/15 10:47:12;;;;;;;3.23;2.90;;;;;;;;;;5074744;28;20232;-86
2023/04/15 10:49:45;;;;;;;3.27;2.50;;;;;;;;;;5074694;28;20257;-86
2023/04/15 10:52:13;;;;;;;2.53;2.33;;;;;;;;;;5074284;28;20266;-86
2023/04/15 10:54:41;;;;;;;6.33;2.83;;;;;;;;;;5074484;28;20206;-88
2023/04/15 10:57:15;;;;;;;3.77;1.90;;;;;;;;;;5074342;28;20218;-86
2023/04/15 11:00:05;;;;;;;4.10;2.23;;;;;;;;;;5074266;28;20197;-86
2023/04/15 11:02:45;;;;;;;2.43;2.17;;;;;;;;;;5074437;28;20194;-86
2023/04/15 11:05:14;;;;;;;2.37;1.43;;;;;;;;;;5074188;28;20263;-83
2023/04/15 11:07:48;;;;;;;1.43;1.30;;;;;;;;;;5074168;28;20199;-83
2023/04/15 11:10:36;;;;;;;1.60;1.50;;;;;;;;;;5074282;28;20206;-83
2023/04/15 11:13:06;;;;;;;4.17;1.70;;;;;;;;;;5073828;28;20237;-83
2023/04/15 11:15:36;;;;;;;2.83;1.80;;;;;;;;;;5073495;28;20217;-83
2023/04/15 11:18:10;;;;;;;2.07;1.97;;;;;;;;;;5073946;28;20198;-83
2023/04/15 11:20:39;;;;;;;1.67;1.57;;;;;;;;;;5074016;28;20293;-83
2023/04/15 11:23:07;;;;;;;1.70;1.60;;;;;;;;;;5073957;28;20202;-83
2023/04/15 11:25:44;;;;;;;4.20;2.03;;;;;;;;;;5073959;28;20201;-83
2023/04/15 11:28:13;;;;;;;2.10;1.90;;;;;;;;;;5073909;28;20227;-82
2023/04/15 11:30:43;;;;;;;2.33;2.10;;;;;;;;;;5073279;28;20217;-86
2023/04/15 11:33:12;;;;;;;2.03;1.87;;;;;;;;;;5074055;28;20298;-85
2023/04/15 11:35:42;;;;;;;2.03;1.73;;;;;;;;;;5073770;28;20198;-86
2023/04/15 11:38:11;;;;;;;2.10;1.70;;;;;;;;;;5073333;28;20202;-86
2023/04/15 11:40:40;;;;;;;1.63;1.57;;;;;;;;;;5073383;28;20194;-86
2023/04/15 11:43:14;;;;;;;2.13;1.93;;;;;;;;;;5073192;28;20324;-86
2023/04/15 11:45:50;;;;;;;1.70;1.60;;;;;;;;;;5073201;28;20203;-86
2023/04/15 11:48:19;;;;;;;2.30;2.10;;;;;;;;;;5073469;28;20244;-86
2023/04/15 11:50:53;;;;;;;2.30;2.10;;;;;;;;;;5073598;28;20210;-86
2023/04/15 11:53:22;;;;;;;5.50;2.40;;;;;;;;;;5072568;28;20206;-86
2023/04/15 11:55:51;;;;;;;3.00;2.53;;;;;;;;;;5073131;28;20206;-86
2023/04/15 11:58:22;;;;;;;4.90;2.00;;;;;;;;;;5073127;28;20205;-86
2023/04/15 12:00:52;;;;;;;2.10;1.77;;;;;;;;;;5073426;28;20225;-86
2023/04/15 12:03:23;;;;;;;5.13;2.33;;;;;;;;;;5073452;28;20199;-86
2023/04/15 12:06:19;;;;;;;3.33;2.43;;;;;;;;;;5073074;28;20206;-85
2023/04/15 12:08:57;;;;;;;6.03;2.00;;;;;;;;;;5026156;28;20216;-86
2023/04/15 12:11:30;;;;;;;3.03;1.90;;;;;;;;;;5072774;28;20198;-86
2023/04/15 12:14:03;;;;;;;1.70;1.60;;;;;;;;;;5073247;28;20213;-86
2023/04/15 12:16:34;;;;;;;3.07;2.50;;;;;;;;;;5072722;28;20251;-86
2023/04/15 12:19:17;;;;;;;5.80;2.50;;;;;;;;;;5073139;28;20247;-86
2023/04/15 12:21:46;;;;;;;5.23;2.67;;;;;;;;;;5072938;28;20302;-86
2023/04/15 12:24:15;;;;;;;2.20;1.93;;;;;;;;;;5072704;28;20202;-86
2023/04/15 12:26:47;;;;;;;2.60;2.40;;;;;;;;;;5072694;28;20217;-85
2023/04/15 12:29:17;;;;;;;1.67;1.57;;;;;;;;;;5072500;28;20275;-86
2023/04/15 12:31:50;;;;;;;4.60;1.77;;;;;;;;;;5072998;28;20198;-86
2023/04/15 12:34:19;;;;;;;2.07;1.83;;;;;;;;;;5072880;28;20209;-85
2023/04/15 12:36:48;;;;;;;3.00;2.23;;;;;;;;;;5072778;28;20228;-86
2023/04/15 12:39:16;;;;;;;2.10;1.90;;;;;;;;;;5072428;28;20229;-86
2023/04/15 12:41:45;;;;;;;1.70;1.60;;;;;;;;;;5072383;28;20273;-86
2023/04/15 12:44:13;;;;;;;2.10;2.00;;;;;;;;;;5072203;28;20258;-86
2023/04/15 12:46:43;;;;;;;2.30;1.97;;;;;;;;;;5072580;28;20235;-85
2023/04/15 12:49:13;;;;;;;1.93;1.77;;;;;;;;;;5072502;28;20203;-86
2023/04/15 12:51:41;;;;;;;5.13;2.50;;;;;;;;;;5072086;28;20203;-85
2023/04/15 12:54:10;;;;;;;2.63;2.03;;;;;;;;;;5072486;28;20267;-86
2023/04/15 12:56:38;;;;;;;4.40;2.00;;;;;;;;;;5072270;28;20195;-86
2023/04/15 12:59:07;;;;;;;2.87;2.67;;;;;;;;;;5071894;28;20202;-86
2023/04/15 13:01:37;;;;;;;2.60;2.40;;;;;;;;;;5072195;28;20206;-86
2023/04/15 13:04:07;;;;;;;2.63;1.80;;;;;;;;;;5071562;28;20208;-86
2023/04/15 13:06:37;;;;;;;1.50;1.40;;;;;;;;;;5071479;28;20205;-86
2023/04/15 13:09:05;;;;;;;1.87;1.33;;;;;;;;;;5072240;28;20213;-86
2023/04/15 13:11:35;;;;;;;1.67;1.53;;;;;;;;;;5072110;28;20209;-86
2023/04/15 13:14:04;;;;;;;3.97;1.73;;;;;;;;;;5071950;28;20201;-86
2023/04/15 13:16:32;;;;;;;1.40;1.30;;;;;;;;;;5071783;28;20196;-86
2023/04/15 13:19:02;;;;;;;1.63;1.40;;;;;;;;;;5071560;28;20294;-87
2023/04/15 13:21:33;;;;;;;1.53;1.43;;;;;;;;;;5072120;28;20220;-86
2023/04/15 13:24:05;;;;;;;1.70;1.43;;;;;;;;;;5071907;28;20209;-86
2023/04/15 13:26:34;;;;;;;7.00;2.30;;;;;;;;;;5071354;28;20316;-86
2023/04/15 13:29:03;;;;;;;2.47;2.00;;;;;;;;;;5072133;28;20229;-86
2023/04/15 13:31:31;;;;;;;4.13;1.97;;;;;;;;;;5071655;28;20206;-86
2023/04/15 13:34:00;;;;;;;5.87;1.90;;;;;;;;;;5071217;28;20212;-86
2023/04/15 13:36:28;;;;;;;2.83;1.57;;;;;;;;;;5071398;28;20306;-86
2023/04/15 13:38:58;;;;;;;5.33;1.93;;;;;;;;;;5071218;28;20260;-86
2023/04/15 13:41:27;;;;;;;2.73;1.43;;;;;;;;;;5071092;28;20206;-85
2023/04/15 13:43:58;;;;;;;4.70;2.00;;;;;;;;;;5071752;28;20313;-86
2023/04/15 13:46:26;;;;;;;1.20;1.20;;;;;;;;;;5071955;28;20229;-85
2023/04/15 13:48:55;;;;;;;3.10;1.70;;;;;;;;;;5071790;28;20205;-86
2023/04/15 13:51:23;;;;;;;3.80;2.13;;;;;;;;;;5071608;28;20214;-86
2023/04/15 13:53:52;;;;;;;2.27;1.40;;;;;;;;;;5071461;28;20225;-86
2023/04/15 13:56:22;;;;;;;1.90;1.60;;;;;;;;;;5071417;28;20205;-86
2023/04/15 13:58:51;;;;;;;1.43;1.33;;;;;;;;;;5071938;28;20234;-86
2023/04/15 14:01:20;;;;;;;1.67;1.40;;;;;;;;;;5071487;28;20260;-86
2023/04/15 14:03:48;;;;;;;2.23;1.60;;;;;;;;;;5071537;28;20242;-86
2023/04/15 14:06:17;;;;;;;1.43;1.33;;;;;;;;;;5071299;28;20292;-86
2023/04/15 14:08:45;;;;;;;2.70;1.87;;;;;;;;;;5072138;28;20195;-86
2023/04/15 14:11:14;;;;;;;2.47;2.00;;;;;;;;;;5071570;28;20198;-86
2023/04/15 14:13:44;;;;;;;7.27;2.53;;;;;;;;;;5072021;28;20202;-86
2023/04/15 14:16:12;;;;;;;3.20;1.87;;;;;;;;;;5071825;28;20189;-86
2023/04/15 14:18:41;;;;;;;1.97;1.70;;;;;;;;;;5075601;28;20226;-86
2023/04/15 14:21:09;;;;;;;2.83;1.87;;;;;;;;;;5075027;28;20198;-86
2023/04/15 14:23:38;;;;;;;7.17;1.90;;;;;;;;;;5075303;28;20214;-86
2023/04/15 14:26:06;;;;;;;1.93;1.77;;;;;;;;;;5074610;28;20210;-86
2023/04/15 14:28:37;;;;;;;2.00;1.50;;;;;;;;;;5074469;28;20218;-86
2023/04/15 14:31:07;;;;;;;2.07;1.87;;;;;;;;;;5075386;28;20226;-86
2023/04/15 14:33:35;;;;;;;3.87;3.10;;;;;;;;;;5075165;28;20230;-86
2023/04/15 14:36:04;;;;;;;1.27;1.20;;;;;;;;;;5075261;28;20296;-86
2023/04/15 14:38:37;;;;;;;1.90;1.80;;;;;;;;;;5074748;28;20320;-86
2023/04/15 14:41:05;;;;;;;7.07;2.33;;;;;;;;;;5075156;28;20210;-86
2023/04/15 14:43:34;;;;;;;2.67;2.27;;;;;;;;;;5074263;28;20229;-86
2023/04/15 14:46:03;;;;;;;4.27;1.87;;;;;;;;;;5074593;28;20230;-86
2023/04/15 14:48:33;;;;;;;2.70;1.87;;;;;;;;;;5075229;28;20194;-85
2023/04/15 14:51:02;;;;;;;2.27;1.90;;;;;;;;;;5074596;28;20197;-86
2023/04/15 14:53:30;;;;;;;2.53;2.30;;;;;;;;;;5074501;28;20225;-86
2023/04/15 14:55:59;;;;;;;2.87;1.50;;;;;;;;;;5074852;28;20206;-85